Terminal Aerodrome Forecast
Issued by NWS

Home | Current Version | Previous Version | Text Only | Print | Product List | Glossary On
Versions: 1 2 3 4 5 6 7 8 9 10 11 12 13 14 15 16 17 18
748
FTUS43 KMQT 311121
TAFCMX
TAF
KCMX 311121Z 3112/0112 10012KT P6SM VCSH BKN070
     FM311300 10012G17KT P6SM BKN090
     FM312000 10015G22KT P6SM VCSH OVC090
     FM010300 11009KT P6SM -SHRA OVC070 WS010/19030KT
     FM010700 13006KT 6SM -SHRA OVC045
     FM011000 14007KT 6SM -SHRA OVC020=

USA.gov is the U.S. government's official web portal to all federal, state and local government web resources and services.